sensor_id;sensor_type;location;lat;lon;timestamp;pressure;altitude;pressure_sealevel;temperature;humidity
49945;BME280;35838;49.134;9.212;2023-02-04T00:00:20;101175.69;;;7.27;100.00
49945;BME280;35838;49.134;9.212;2023-02-04T00:01:54;101176.59;;;7.29;100.00
49945;BME280;35838;49.134;9.212;2023-02-04T00:03:27;101175.81;;;7.31;100.00
49945;BME280;35838;49.134;9.212;2023-02-04T00:05:01;101177.50;;;7.31;100.00
49945;BME280;35838;49.134;9.212;2023-02-04T00:06:32;101185.16;;;7.28;100.00
49945;BME280;35838;49.134;9.212;2023-02-04T00:08:08;101177.22;;;7.21;100.00
49945;BME280;35838;49.134;9.212;2023-02-04T00:09:42;101183.09;;;7.16;100.00
49945;BME280;35838;49.134;9.212;2023-02-04T00:11:16;101184.78;;;7.14;100.00
49945;BME280;35838;49.134;9.212;2023-02-04T00:12:47;101189.00;;;7.12;100.00
49945;BME280;35838;49.134;9.212;2023-02-04T00:14:20;101189.03;;;7.13;100.00
49945;BME280;35838;49.134;9.212;2023-02-04T00:15:54;101196.13;;;7.20;100.00
49945;BME280;35838;49.134;9.212;2023-02-04T00:17:27;101194.94;;;7.09;100.00
49945;BME280;35838;49.134;9.212;2023-02-04T00:19:01;101191.66;;;7.15;100.00
49945;BME280;35838;49.134;9.212;2023-02-04T00:20:35;101195.72;;;7.06;100.00
49945;BME280;35838;49.134;9.212;2023-02-04T00:22:08;101199.19;;;7.07;100.00
49945;BME280;35838;49.134;9.212;2023-02-04T00:23:42;101201.66;;;7.04;100.00
49945;BME280;35838;49.134;9.212;2023-02-04T00:25:16;101199.97;;;7.04;100.00
49945;BME280;35838;49.134;9.212;2023-02-04T00:26:49;101198.28;;;7.06;100.00
49945;BME280;35838;49.134;9.212;2023-02-04T00:28:23;101199.38;;;7.13;100.00
49945;BME280;35838;49.134;9.212;2023-02-04T00:29:54;101191.44;;;7.07;100.00
49945;BME280;35838;49.134;9.212;2023-02-04T00:31:27;101194.84;;;7.06;100.00
49945;BME280;35838;49.134;9.212;2023-02-04T00:32:58;101205.03;;;7.01;100.00
49945;BME280;35838;49.134;9.212;2023-02-04T00:34:32;101204.09;;;6.99;100.00
49945;BME280;35838;49.134;9.212;2023-02-04T00:36:06;101205.81;;;6.99;100.00
49945;BME280;35838;49.134;9.212;2023-02-04T00:37:39;101214.19;;;6.92;100.00
49945;BME280;35838;49.134;9.212;2023-02-04T00:39:16;101216.22;;;7.02;100.00
49945;BME280;35838;49.134;9.212;2023-02-04T00:40:49;101218.91;;;7.05;100.00
49945;BME280;35838;49.134;9.212;2023-02-04T00:42:23;101211.81;;;6.98;100.00
49945;BME280;35838;49.134;9.212;2023-02-04T00:43:56;101213.41;;;6.94;100.00
49945;BME280;35838;49.134;9.212;2023-02-04T00:45:30;101199.91;;;7.03;100.00
49945;BME280;35838;49.134;9.212;2023-02-04T00:47:04;101213.72;;;7.03;100.00
49945;BME280;35838;49.134;9.212;2023-02-04T00:48:38;101218.09;;;7.06;100.00
49945;BME280;35838;49.134;9.212;2023-02-04T00:50:09;101226.53;;;7.02;100.00
49945;BME280;35838;49.134;9.212;2023-02-04T00:51:42;101223.34;;;7.09;100.00
49945;BME280;35838;49.134;9.212;2023-02-04T00:53:16;101225.81;;;7.06;100.00
49945;BME280;35838;49.134;9.212;2023-02-04T00:54:53;101218.09;;;7.06;100.00
49945;BME280;35838;49.134;9.212;2023-02-04T00:56:26;101224.78;;;7.01;100.00
49945;BME280;35838;49.134;9.212;2023-02-04T00:58:00;101218.88;;;7.03;100.00
49945;BME280;35838;49.134;9.212;2023-02-04T00:59:33;101219.09;;;7.11;100.00
49945;BME280;35838;49.134;9.212;2023-02-04T01:01:07;101218.94;;;7.06;100.00
49945;BME280;35838;49.134;9.212;2023-02-04T01:02:38;101216.44;;;7.08;100.00
49945;BME280;35838;49.134;9.212;2023-02-04T01:04:12;101217.16;;;7.04;100.00
49945;BME280;35838;49.134;9.212;2023-02-04T01:05:44;101213.72;;;7.03;100.00
49945;BME280;35838;49.134;9.212;2023-02-04T01:07:18;101221.38;;;7.02;100.00
49945;BME280;35838;49.134;9.212;2023-02-04T01:08:51;101220.81;;;7.11;100.00
49945;BME280;35838;49.134;9.212;2023-02-04T01:10:27;101230.16;;;7.07;100.00
49945;BME280;35838;49.134;9.212;2023-02-04T01:11:58;101226.75;;;7.08;100.00
49945;BME280;35838;49.134;9.212;2023-02-04T01:13:32;101230.06;;;7.04;100.00
49945;BME280;35838;49.134;9.212;2023-02-04T01:15:06;101234.53;;;7.10;100.00
49945;BME280;35838;49.134;9.212;2023-02-04T01:16:40;101229.94;;;7.01;100.00
49945;BME280;35838;49.134;9.212;2023-02-04T01:18:14;101232.78;;;7.09;100.00
49945;BME280;35838;49.134;9.212;2023-02-04T01:19:48;101223.06;;;7.00;100.00
49945;BME280;35838;49.134;9.212;2023-02-04T01:21:19;101230.06;;;7.04;100.00
49945;BME280;35838;49.134;9.212;2023-02-04T01:22:52;101226.75;;;7.08;100.00
49945;BME280;35838;49.134;9.212;2023-02-04T01:24:26;101226.47;;;6.99;100.00
49945;BME280;35838;49.134;9.212;2023-02-04T01:26:02;101223.25;;;7.06;100.00
49945;BME280;35838;49.134;9.212;2023-02-04T01:27:36;101228.22;;;7.00;100.00
49945;BME280;35838;49.134;9.212;2023-02-04T01:29:10;101235.03;;;6.98;100.00
49945;BME280;35838;49.134;9.212;2023-02-04T01:30:43;101227.44;;;7.02;100.00
49945;BME280;35838;49.134;9.212;2023-02-04T01:32:17;101230.72;;;6.98;100.00
49945;BME280;35838;49.134;9.212;2023-02-04T01:33:50;101227.34;;;6.99;100.00
49945;BME280;35838;49.134;9.212;2023-02-04T01:35:24;101231.34;;;6.89;100.00
49945;BME280;35838;49.134;9.212;2023-02-04T01:36:58;101229.63;;;6.90;100.00
49945;BME280;35838;49.134;9.212;2023-02-04T01:38:29;101239.22;;;6.94;100.00
49945;BME280;35838;49.134;9.212;2023-02-04T01:40:03;101245.19;;;6.92;100.00
49945;BME280;35838;49.134;9.212;2023-02-04T01:41:40;101242.84;;;7.01;100.00
49945;BME280;35838;49.134;9.212;2023-02-04T01:43:13;101239.38;;;6.99;100.00
49945;BME280;35838;49.134;9.212;2023-02-04T01:44:47;101240.28;;;7.01;100.00
49945;BME280;35838;49.134;9.212;2023-02-04T01:46:18;101247.25;;;7.03;100.00
49945;BME280;35838;49.134;9.212;2023-02-04T01:47:52;101243.72;;;7.00;100.00
49945;BME280;35838;49.134;9.212;2023-02-04T01:49:23;101251.31;;;6.95;100.00
49945;BME280;35838;49.134;9.212;2023-02-04T01:51:00;101253.00;;;6.95;100.00
49945;BME280;35838;49.134;9.212;2023-02-04T01:52:36;101252.06;;;6.93;100.00
49945;BME280;35838;49.134;9.212;2023-02-04T01:54:08;101253.75;;;6.90;100.00
49945;BME280;35838;49.134;9.212;2023-02-04T01:55:42;101253.94;;;6.97;100.00
49945;BME280;35838;49.134;9.212;2023-02-04T01:57:19;101262.59;;;6.99;100.00
49945;BME280;35838;49.134;9.212;2023-02-04T01:58:53;101257.34;;;6.96;100.00
49945;BME280;35838;49.134;9.212;2023-02-04T02:00:28;101262.59;;;6.99;100.00
49945;BME280;35838;49.134;9.212;2023-02-04T02:04:08;101270.13;;;6.93;100.00
49945;BME280;35838;49.134;9.212;2023-02-04T02:05:42;101254.44;;;6.86;100.00
49945;BME280;35838;49.134;9.212;2023-02-04T02:07:16;101249.28;;;6.86;100.00
49945;BME280;35838;49.134;9.212;2023-02-04T02:08:47;101256.25;;;6.89;100.00
49945;BME280;35838;49.134;9.212;2023-02-04T02:10:21;101264.22;;;6.95;100.00
49945;BME280;35838;49.134;9.212;2023-02-04T02:11:56;101264.16;;;6.94;100.00
49945;BME280;35838;49.134;9.212;2023-02-04T02:13:32;101259.72;;;6.89;100.00
49945;BME280;35838;49.134;9.212;2023-02-04T02:15:06;101266.69;;;6.92;100.00
49945;BME280;35838;49.134;9.212;2023-02-04T02:16:40;101262.50;;;6.96;100.00
49945;BME280;35838;49.134;9.212;2023-02-04T02:18:14;101260.22;;;7.05;100.00
49945;BME280;35838;49.134;9.212;2023-02-04T02:19:48;101265.47;;;7.08;100.00
49945;BME280;35838;49.134;9.212;2023-02-04T02:21:20;101250.06;;;7.11;100.00
49945;BME280;35838;49.134;9.212;2023-02-04T02:22:58;101240.34;;;7.02;100.00
49945;BME280;35838;49.134;9.212;2023-02-04T02:24:37;101238.44;;;6.97;100.00
49945;BME280;35838;49.134;9.212;2023-02-04T02:26:10;101239.22;;;6.94;100.00
49945;BME280;35838;49.134;9.212;2023-02-04T02:27:42;101239.06;;;6.89;100.00
49945;BME280;35838;49.134;9.212;2023-02-04T02:29:15;101243.66;;;6.98;100.00
49945;BME280;35838;49.134;9.212;2023-02-04T02:30:49;101254.91;;;7.00;100.00
49945;BME280;35838;49.134;9.212;2023-02-04T02:32:24;101251.75;;;7.09;100.00
49945;BME280;35838;49.134;9.212;2023-02-04T02:33:55;101256.94;;;7.11;100.00
49945;BME280;35838;49.134;9.212;2023-02-04T02:35:28;101271.41;;;7.05;100.00
49945;BME280;35838;49.134;9.212;2023-02-04T02:37:03;101266.19;;;7.04;100.00
49945;BME280;35838;49.134;9.212;2023-02-04T02:38:35;101265.41;;;7.06;100.00
49945;BME280;35838;49.134;9.212;2023-02-04T02:40:12;101261.81;;;7.01;100.00
49945;BME280;35838;49.134;9.212;2023-02-04T02:41:46;101260.81;;;6.96;100.00
49945;BME280;35838;49.134;9.212;2023-02-04T02:43:18;101253.19;;;7.01;100.00
49945;BME280;35838;49.134;9.212;2023-02-04T02:44:53;101249.16;;;7.09;100.00
49945;BME280;35838;49.134;9.212;2023-02-04T02:46:27;101266.19;;;7.04;100.00
49945;BME280;35838;49.134;9.212;2023-02-04T02:48:01;101258.63;;;7.10;100.00
49945;BME280;35838;49.134;9.212;2023-02-04T02:49:33;101255.19;;;7.10;100.00
49945;BME280;35838;49.134;9.212;2023-02-04T02:51:09;101255.09;;;7.06;100.00
49945;BME280;35838;49.134;9.212;2023-02-04T02:52:40;101260.94;;;7.01;100.00
49945;BME280;35838;49.134;9.212;2023-02-04T02:54:17;101255.09;;;7.06;100.00
49945;BME280;35838;49.134;9.212;2023-02-04T02:55:54;101254.34;;;7.09;100.00
49945;BME280;35838;49.134;9.212;2023-02-04T02:57:28;101255.97;;;7.07;100.00
49945;BME280;35838;49.134;9.212;2023-02-04T02:59:11;101255.00;;;7.03;100.00
49945;BME280;35838;49.134;9.212;2023-02-04T03:00:44;101262.69;;;7.02;100.00
49945;BME280;35838;49.134;9.212;2023-02-04T03:02:18;101261.72;;;6.98;100.00
49945;BME280;35838;49.134;9.212;2023-02-04T03:03:54;101272.09;;;7.00;100.00
49945;BME280;35838;49.134;9.212;2023-02-04T03:05:26;101267.09;;;7.04;100.00
49945;BME280;35838;49.134;9.212;2023-02-04T03:07:00;101261.22;;;7.10;100.00
49945;BME280;35838;49.134;9.212;2023-02-04T03:08:32;101266.31;;;7.07;100.00
49945;BME280;35838;49.134;9.212;2023-02-04T03:10:05;101282.88;;;7.14;100.00
49945;BME280;35838;49.134;9.212;2023-02-04T03:11:42;101287.78;;;7.06;100.00
49945;BME280;35838;49.134;9.212;2023-02-04T03:13:16;101289.63;;;7.10;100.00
49945;BME280;35838;49.134;9.212;2023-02-04T03:14:49;101291.44;;;7.13;100.00
49945;BME280;35838;49.134;9.212;2023-02-04T03:16:23;101287.16;;;7.13;100.00
49945;BME280;35838;49.134;9.212;2023-02-04T03:17:54;101292.34;;;7.15;100.00
49945;BME280;35838;49.134;9.212;2023-02-04T03:19:28;101307.91;;;7.16;100.00
49945;BME280;35838;49.134;9.212;2023-02-04T03:20:59;101306.16;;;7.15;100.00
49945;BME280;35838;49.134;9.212;2023-02-04T03:22:35;101298.97;;;7.06;100.00
49945;BME280;35838;49.134;9.212;2023-02-04T03:24:09;101305.91;;;7.08;100.00
49945;BME280;35838;49.134;9.212;2023-02-04T03:25:42;101303.44;;;7.11;100.00
49945;BME280;35838;49.134;9.212;2023-02-04T03:27:18;101312.97;;;7.13;100.00
49945;BME280;35838;49.134;9.212;2023-02-04T03:28:50;101313.00;;;7.15;100.00
49945;BME280;35838;49.134;9.212;2023-02-04T03:30:24;101318.25;;;7.16;99.33
49945;BME280;35838;49.134;9.212;2023-02-04T03:31:58;101313.16;;;7.19;98.69
49945;BME280;35838;49.134;9.212;2023-02-04T03:33:32;101319.16;;;7.18;98.08
49945;BME280;35838;49.134;9.212;2023-02-04T03:35:06;101319.28;;;7.23;97.55
49945;BME280;35838;49.134;9.212;2023-02-04T03:36:39;101320.97;;;7.21;96.34
49945;BME280;35838;49.134;9.212;2023-02-04T03:38:13;101313.09;;;7.16;94.76
49945;BME280;35838;49.134;9.212;2023-02-04T03:39:47;101305.25;;;7.15;93.09
49945;BME280;35838;49.134;9.212;2023-02-04T03:41:20;101311.28;;;7.14;93.43
49945;BME280;35838;49.134;9.212;2023-02-04T03:42:54;101321.34;;;7.06;92.32
49945;BME280;35838;49.134;9.212;2023-02-04T03:44:27;101325.69;;;7.07;91.56
49945;BME280;35838;49.134;9.212;2023-02-04T03:46:01;101322.22;;;7.06;91.33
49945;BME280;35838;49.134;9.212;2023-02-04T03:47:35;101326.63;;;7.09;91.73
49945;BME280;35838;49.134;9.212;2023-02-04T03:49:08;101333.75;;;7.16;92.18
49945;BME280;35838;49.134;9.212;2023-02-04T03:50:42;101329.44;;;7.17;91.92
49945;BME280;35838;49.134;9.212;2023-02-04T03:52:16;101331.03;;;7.13;91.54
49945;BME280;35838;49.134;9.212;2023-02-04T03:53:49;101334.06;;;7.00;90.05
49945;BME280;35838;49.134;9.212;2023-02-04T03:55:23;101337.66;;;7.05;89.80
49945;BME280;35838;49.134;9.212;2023-02-04T03:56:55;101337.69;;;7.06;90.32
49945;BME280;35838;49.134;9.212;2023-02-04T03:58:32;101341.03;;;7.02;91.05
49945;BME280;35838;49.134;9.212;2023-02-04T04:00:06;101344.69;;;7.09;91.76
49945;BME280;35838;49.134;9.212;2023-02-04T04:01:39;101346.38;;;7.09;92.44
49945;BME280;35838;49.134;9.212;2023-02-04T04:03:13;101338.59;;;7.07;92.54
49945;BME280;35838;49.134;9.212;2023-02-04T04:04:44;101337.66;;;7.05;92.71
49945;BME280;35838;49.134;9.212;2023-02-04T04:06:18;101334.88;;;6.99;91.85
49945;BME280;35838;49.134;9.212;2023-02-04T04:07:51;101346.97;;;7.00;90.94
49945;BME280;35838;49.134;9.212;2023-02-04T04:09:22;101344.22;;;6.95;91.21
49945;BME280;35838;49.134;9.212;2023-02-04T04:10:56;101347.72;;;6.97;91.94
49945;BME280;35838;49.134;9.212;2023-02-04T04:12:29;101356.03;;;6.88;91.44
49945;BME280;35838;49.134;9.212;2023-02-04T04:14:03;101354.44;;;6.92;91.84
49945;BME280;35838;49.134;9.212;2023-02-04T04:15:37;101351.97;;;6.95;91.44
49945;BME280;35838;49.134;9.212;2023-02-04T04:17:10;101356.25;;;6.95;91.46
49945;BME280;35838;49.134;9.212;2023-02-04T04:18:44;101358.81;;;6.95;90.17
49945;BME280;35838;49.134;9.212;2023-02-04T04:20:17;101359.59;;;6.92;90.65
49945;BME280;35838;49.134;9.212;2023-02-04T04:21:48;101356.16;;;6.92;90.42
49945;BME280;35838;49.134;9.212;2023-02-04T04:23:22;101364.81;;;6.94;90.60
49945;BME280;35838;49.134;9.212;2023-02-04T04:24:55;101362.88;;;6.88;90.39
49945;BME280;35838;49.134;9.212;2023-02-04T04:26:26;101368.94;;;6.88;90.34
49945;BME280;35838;49.134;9.212;2023-02-04T04:28:00;101364.66;;;6.89;90.43
49945;BME280;35838;49.134;9.212;2023-02-04T04:29:36;101360.47;;;6.93;90.44
49945;BME280;35838;49.134;9.212;2023-02-04T04:31:10;101365.53;;;6.89;89.99
49945;BME280;35838;49.134;9.212;2023-02-04T04:32:44;101368.13;;;6.89;89.31
49945;BME280;35838;49.134;9.212;2023-02-04T04:34:15;101373.34;;;6.91;89.19
49945;BME280;35838;49.134;9.212;2023-02-04T04:35:48;101378.84;;;6.76;87.90
49945;BME280;35838;49.134;9.212;2023-02-04T04:37:22;101365.78;;;6.71;85.69
49945;BME280;35838;49.134;9.212;2023-02-04T04:38:55;101373.75;;;6.78;86.15
49945;BME280;35838;49.134;9.212;2023-02-04T04:40:29;101389.41;;;6.82;86.52
49945;BME280;35838;49.134;9.212;2023-02-04T04:42:03;101393.78;;;6.85;85.32
49945;BME280;35838;49.134;9.212;2023-02-04T04:43:34;101398.03;;;6.84;84.57
49945;BME280;35838;49.134;9.212;2023-02-04T04:45:10;101392.78;;;6.81;83.27
49945;BME280;35838;49.134;9.212;2023-02-04T04:46:41;101397.34;;;6.88;82.94
49945;BME280;35838;49.134;9.212;2023-02-04T04:48:15;101394.63;;;6.85;83.19
49945;BME280;35838;49.134;9.212;2023-02-04T04:49:46;101403.31;;;6.87;82.58
49945;BME280;35838;49.134;9.212;2023-02-04T04:51:19;101400.78;;;6.89;83.02
49945;BME280;35838;49.134;9.212;2023-02-04T04:52:53;101403.22;;;6.84;81.93
49945;BME280;35838;49.134;9.212;2023-02-04T04:54:26;101399.72;;;6.82;81.95
49945;BME280;35838;49.134;9.212;2023-02-04T04:55:57;101404.09;;;6.85;82.22
49945;BME280;35838;49.134;9.212;2023-02-04T04:57:31;101408.50;;;6.87;82.32
49945;BME280;35838;49.134;9.212;2023-02-04T04:59:02;101407.66;;;6.88;81.61
49945;BME280;35838;49.134;9.212;2023-02-04T05:00:38;101410.25;;;6.88;81.47
49945;BME280;35838;49.134;9.212;2023-02-04T05:02:12;101409.44;;;6.89;82.00
49945;BME280;35838;49.134;9.212;2023-02-04T05:03:46;101405.09;;;6.88;82.67
49945;BME280;35838;49.134;9.212;2023-02-04T05:05:19;101408.50;;;6.87;83.56
49945;BME280;35838;49.134;9.212;2023-02-04T05:06:53;101411.88;;;6.86;84.14
49945;BME280;35838;49.134;9.212;2023-02-04T05:08:26;101405.78;;;6.84;84.55
49945;BME280;35838;49.134;9.212;2023-02-04T05:10:00;101409.25;;;6.85;84.90
49945;BME280;35838;49.134;9.212;2023-02-04T05:11:31;101411.56;;;6.77;86.19
49945;BME280;35838;49.134;9.212;2023-02-04T05:13:05;101411.13;;;6.65;85.84
49945;BME280;35838;49.134;9.212;2023-02-04T05:14:38;101417.28;;;6.68;86.24
49945;BME280;35838;49.134;9.212;2023-02-04T05:16:14;101413.94;;;6.71;86.82
49945;BME280;35838;49.134;9.212;2023-02-04T05:17:46;101411.34;;;6.71;86.20
49945;BME280;35838;49.134;9.212;2023-02-04T05:19:20;101412.03;;;6.67;85.05
49945;BME280;35838;49.134;9.212;2023-02-04T05:20:54;101418.94;;;6.66;84.93
49945;BME280;35838;49.134;9.212;2023-02-04T05:22:24;101417.38;;;6.71;84.95
49945;BME280;35838;49.134;9.212;2023-02-04T05:23:58;101415.78;;;6.75;84.95
49945;BME280;35838;49.134;9.212;2023-02-04T05:25:32;101418.19;;;6.70;84.58
49945;BME280;35838;49.134;9.212;2023-02-04T05:27:06;101412.78;;;6.63;86.89
49945;BME280;35838;49.134;9.212;2023-02-04T05:28:37;101414.28;;;6.57;87.82
49945;BME280;35838;49.134;9.212;2023-02-04T05:30:11;101409.91;;;6.55;88.21
49945;BME280;35838;49.134;9.212;2023-02-04T05:31:47;101409.81;;;6.52;88.61
49945;BME280;35838;49.134;9.212;2023-02-04T05:33:18;101419.22;;;6.51;88.95
49945;BME280;35838;49.134;9.212;2023-02-04T05:34:52;101419.34;;;6.54;88.86
49945;BME280;35838;49.134;9.212;2023-02-04T05:36:25;101417.59;;;6.53;88.56
49945;BME280;35838;49.134;9.212;2023-02-04T05:37:59;101415.97;;;6.55;88.18
49945;BME280;35838;49.134;9.212;2023-02-04T05:39:32;101416.69;;;6.53;87.93
49945;BME280;35838;49.134;9.212;2023-02-04T05:41:06;101410.69;;;6.52;88.10
49945;BME280;35838;49.134;9.212;2023-02-04T05:42:40;101417.59;;;6.53;88.37
49945;BME280;35838;49.134;9.212;2023-02-04T05:44:14;101423.44;;;6.49;88.15
49945;BME280;35838;49.134;9.212;2023-02-04T05:45:47;101414.81;;;6.24;86.70
49945;BME280;35838;49.134;9.212;2023-02-04T05:47:23;101424.66;;;6.12;85.40
49945;BME280;35838;49.134;9.212;2023-02-04T05:48:57;101428.06;;;6.11;86.67
49945;BME280;35838;49.134;9.212;2023-02-04T05:50:31;101416.94;;;6.12;86.59
49945;BME280;35838;49.134;9.212;2023-02-04T05:52:04;101411.66;;;6.09;85.17
49945;BME280;35838;49.134;9.212;2023-02-04T05:53:35;101413.59;;;6.15;84.70
49945;BME280;35838;49.134;9.212;2023-02-04T05:55:09;101411.88;;;6.15;84.47
49945;BME280;35838;49.134;9.212;2023-02-04T05:56:44;101422.91;;;6.11;83.73
49945;BME280;35838;49.134;9.212;2023-02-04T05:58:18;101429.22;;;6.19;83.66
49945;BME280;35838;49.134;9.212;2023-02-04T05:59:49;101430.19;;;6.21;84.22
49945;BME280;35838;49.134;9.212;2023-02-04T06:01:23;101436.31;;;6.25;84.00
49945;BME280;35838;49.134;9.212;2023-02-04T06:02:59;101450.13;;;6.27;83.87
49945;BME280;35838;49.134;9.212;2023-02-04T06:04:32;101443.16;;;6.24;83.37
49945;BME280;35838;49.134;9.212;2023-02-04T06:06:06;101448.50;;;6.29;82.84
49945;BME280;35838;49.134;9.212;2023-02-04T06:07:40;101451.91;;;6.28;82.34
49945;BME280;35838;49.134;9.212;2023-02-04T06:09:13;101449.41;;;6.30;82.67
49945;BME280;35838;49.134;9.212;2023-02-04T06:10:47;101454.56;;;6.30;83.10
49945;BME280;35838;49.134;9.212;2023-02-04T06:12:21;101454.44;;;6.26;82.87
49945;BME280;35838;49.134;9.212;2023-02-04T06:13:54;101461.34;;;6.27;81.81
49945;BME280;35838;49.134;9.212;2023-02-04T06:15:28;101462.84;;;6.22;80.22
49945;BME280;35838;49.134;9.212;2023-02-04T06:17:02;101461.13;;;6.21;80.31
49945;BME280;35838;49.134;9.212;2023-02-04T06:18:38;101461.94;;;6.20;80.55
49945;BME280;35838;49.134;9.212;2023-02-04T06:20:12;101462.63;;;6.16;80.53
49945;BME280;35838;49.134;9.212;2023-02-04T06:21:46;101476.47;;;6.18;80.52
49945;BME280;35838;49.134;9.212;2023-02-04T06:23:19;101478.97;;;6.17;79.81
49945;BME280;35838;49.134;9.212;2023-02-04T06:24:53;101483.00;;;6.10;78.89
49945;BME280;35838;49.134;9.212;2023-02-04T06:26:26;101481.25;;;6.09;78.98
49945;BME280;35838;49.134;9.212;2023-02-04T06:28:00;101482.84;;;6.05;78.77
49945;BME280;35838;49.134;9.212;2023-02-04T06:29:34;101479.63;;;6.11;78.90
49945;BME280;35838;49.134;9.212;2023-02-04T06:31:07;101476.28;;;6.14;78.85
49945;BME280;35838;49.134;9.212;2023-02-04T06:32:41;101475.50;;;6.16;78.81
49945;BME280;35838;49.134;9.212;2023-02-04T06:34:15;101462.50;;;6.13;78.60
49945;BME280;35838;49.134;9.212;2023-02-04T06:35:48;101468.72;;;6.18;77.70
49945;BME280;35838;49.134;9.212;2023-02-04T06:37:22;101468.53;;;6.14;77.40
49945;BME280;35838;49.134;9.212;2023-02-04T06:38:56;101466.91;;;6.16;78.76
49945;BME280;35838;49.134;9.212;2023-02-04T06:40:27;101473.69;;;6.14;79.88
49945;BME280;35838;49.134;9.212;2023-02-04T06:42:01;101475.19;;;6.08;81.20
49945;BME280;35838;49.134;9.212;2023-02-04T06:43:34;101475.91;;;6.04;82.29
49945;BME280;35838;49.134;9.212;2023-02-04T06:45:08;101480.72;;;5.96;82.52
49945;BME280;35838;49.134;9.212;2023-02-04T06:46:42;101478.84;;;5.92;82.62
49945;BME280;35838;49.134;9.212;2023-02-04T06:48:15;101489.97;;;5.91;82.57
49945;BME280;35838;49.134;9.212;2023-02-04T06:49:52;101480.63;;;5.93;83.10
49945;BME280;35838;49.134;9.212;2023-02-04T06:51:25;101489.97;;;5.91;83.46
49945;BME280;35838;49.134;9.212;2023-02-04T06:52:59;101487.53;;;5.94;83.53
49945;BME280;35838;49.134;9.212;2023-02-04T06:54:33;101490.34;;;5.99;82.56
49945;BME280;35838;49.134;9.212;2023-02-04T06:56:07;101487.00;;;6.02;81.24
49945;BME280;35838;49.134;9.212;2023-02-04T06:57:40;101497.34;;;6.03;81.05
49945;BME280;35838;49.134;9.212;2023-02-04T06:59:14;101499.25;;;6.07;81.65
49945;BME280;35838;49.134;9.212;2023-02-04T07:00:47;101505.41;;;6.11;83.30
49945;BME280;35838;49.134;9.212;2023-02-04T07:02:21;101504.59;;;6.12;84.17
49945;BME280;35838;49.134;9.212;2023-02-04T07:03:55;101509.97;;;6.18;85.95
49945;BME280;35838;49.134;9.212;2023-02-04T07:05:31;101523.00;;;6.21;87.96
49945;BME280;35838;49.134;9.212;2023-02-04T07:07:05;101525.72;;;6.26;90.05
49945;BME280;35838;49.134;9.212;2023-02-04T07:08:38;101531.78;;;6.26;91.25
49945;BME280;35838;49.134;9.212;2023-02-04T07:10:12;101534.22;;;6.23;91.82
49945;BME280;35838;49.134;9.212;2023-02-04T07:11:46;101537.88;;;6.29;92.08
49945;BME280;35838;49.134;9.212;2023-02-04T07:13:20;101545.88;;;6.14;93.23
49945;BME280;35838;49.134;9.212;2023-02-04T07:14:53;101551.66;;;6.08;94.66
49945;BME280;35838;49.134;9.212;2023-02-04T07:16:27;101546.28;;;6.02;95.51
49945;BME280;35838;49.134;9.212;2023-02-04T07:18:00;101546.66;;;6.11;95.49
49945;BME280;35838;49.134;9.212;2023-02-04T07:19:34;101551.91;;;6.14;95.34
49945;BME280;35838;49.134;9.212;2023-02-04T07:21:11;101556.38;;;6.18;95.06
49945;BME280;35838;49.134;9.212;2023-02-04T07:22:44;101555.66;;;6.22;94.71
49945;BME280;35838;49.134;9.212;2023-02-04T07:24:18;101553.00;;;6.19;94.63
49945;BME280;35838;49.134;9.212;2023-02-04T07:25:51;101551.38;;;6.21;94.61
49945;BME280;35838;49.134;9.212;2023-02-04T07:27:25;101557.44;;;6.23;94.35
49945;BME280;35838;49.134;9.212;2023-02-04T07:28:59;101563.22;;;6.18;94.42
49945;BME280;35838;49.134;9.212;2023-02-04T07:30:33;101568.38;;;6.18;94.42
49945;BME280;35838;49.134;9.212;2023-02-04T07:32:06;101566.66;;;6.17;94.28
49945;BME280;35838;49.134;9.212;2023-02-04T07:33:40;101565.50;;;6.10;94.14
49945;BME280;35838;49.134;9.212;2023-02-04T07:35:13;101563.31;;;6.19;93.18
49945;BME280;35838;49.134;9.212;2023-02-04T07:36:50;101560.97;;;6.25;92.16
49945;BME280;35838;49.134;9.212;2023-02-04T07:38:23;101559.16;;;6.23;92.44
49945;BME280;35838;49.134;9.212;2023-02-04T07:39:57;101564.25;;;6.21;92.85
49945;BME280;35838;49.134;9.212;2023-02-04T07:41:31;101559.81;;;6.19;92.93
49945;BME280;35838;49.134;9.212;2023-02-04T07:43:04;101565.75;;;6.16;92.75
49945;BME280;35838;49.134;9.212;2023-02-04T07:44:35;101573.66;;;6.21;92.76
49945;BME280;35838;49.134;9.212;2023-02-04T07:46:09;101577.63;;;6.13;89.80
49945;BME280;35838;49.134;9.212;2023-02-04T07:47:43;101578.63;;;6.16;89.40
49945;BME280;35838;49.134;9.212;2023-02-04T07:49:17;101577.97;;;6.20;89.39
49945;BME280;35838;49.134;9.212;2023-02-04T07:50:50;101582.31;;;6.21;89.42
49945;BME280;35838;49.134;9.212;2023-02-04T07:52:26;101592.66;;;6.23;89.62
49945;BME280;35838;49.134;9.212;2023-02-04T07:54:00;101593.44;;;6.20;88.44
49945;BME280;35838;49.134;9.212;2023-02-04T07:55:34;101597.06;;;6.25;88.15
49945;BME280;35838;49.134;9.212;2023-02-04T07:57:07;101601.34;;;6.25;88.33
49945;BME280;35838;49.134;9.212;2023-02-04T07:58:41;101601.22;;;6.22;88.17
49945;BME280;35838;49.134;9.212;2023-02-04T08:00:15;101602.97;;;6.23;87.63
49945;BME280;35838;49.134;9.212;2023-02-04T08:01:48;101597.81;;;6.23;86.89
49945;BME280;35838;49.134;9.212;2023-02-04T08:03:22;101603.47;;;6.35;85.86
49945;BME280;35838;49.134;9.212;2023-02-04T08:04:55;101602.59;;;6.35;83.89
49945;BME280;35838;49.134;9.212;2023-02-04T08:06:29;101600.00;;;6.35;83.08
49945;BME280;35838;49.134;9.212;2023-02-04T08:08:05;101598.50;;;6.40;82.30
49945;BME280;35838;49.134;9.212;2023-02-04T08:09:39;101605.50;;;6.42;81.92
49945;BME280;35838;49.134;9.212;2023-02-04T08:11:12;101607.88;;;6.38;81.52
49945;BME280;35838;49.134;9.212;2023-02-04T08:12:46;101609.69;;;6.40;82.07
49945;BME280;35838;49.134;9.212;2023-02-04T08:14:20;101612.91;;;6.35;84.07